ZKEOX NZAR-NZTH

Flight info

Callsign ZKEOX
Flight time 0h 38m
Altitude 5000
Route RD
Aircraft C172/L-SFG/C

Departure

Time 2026-04-27 02:57
Airport Ardmore Airport (NZAR)

Arrival

Time 2026-04-27 03:35
Airport Thames Aerodrome (NZTH)
Time Latitude Longitude Altitude Speed Heading
2026-04-27 02:34 -37.03363 174.97311 109 ft 0 kts 323°
2026-04-27 02:44 -37.03362 174.97310 110 ft 2 kts 318°
2026-04-27 02:45 -37.03358 174.97306 110 ft 1 kts 312°
2026-04-27 02:45 -37.03354 174.97301 110 ft 0 kts 311°
2026-04-27 02:45 -37.03349 174.97295 110 ft 7 kts 322°
2026-04-27 02:45 -37.03287 174.97295 110 ft 9 kts 41°
2026-04-27 02:46 -37.03239 174.97354 111 ft 9 kts 45°
2026-04-27 02:46 -37.03198 174.97407 111 ft 8 kts 46°
2026-04-27 02:46 -37.03156 174.97461 111 ft 11 kts 46°
2026-04-27 02:46 -37.03093 174.97538 111 ft 14 kts 48°
2026-04-27 02:47 -37.03030 174.97618 110 ft 11 kts 45°
2026-04-27 02:47 -37.03012 174.97640 110 ft 3 kts 46°
2026-04-27 02:47 -37.02959 174.97709 110 ft 9 kts 44°
2026-04-27 02:47 -37.02909 174.97772 110 ft 10 kts 45°
2026-04-27 02:48 -37.02864 174.97828 110 ft 6 kts 46°
2026-04-27 02:48 -37.02831 174.97867 110 ft 6 kts 41°
2026-04-27 02:48 -37.02821 174.97909 110 ft 5 kts 92°
2026-04-27 02:48 -37.02814 174.97946 109 ft 4 kts 22°
2026-04-27 02:49 -37.02801 174.97955 109 ft 2 kts 71°
2026-04-27 02:49 -37.02807 174.97966 109 ft 2 kts 180°
2026-04-27 02:49 -37.02810 174.97964 109 ft 0 kts 219°
2026-04-27 02:51 -37.02819 174.97964 109 ft 7 kts 151°
2026-04-27 02:52 -37.02820 174.97997 109 ft 5 kts 81°
2026-04-27 02:52 -37.02820 174.98050 109 ft 5 kts 88°
2026-04-27 02:52 -37.02820 174.98093 109 ft 5 kts 90°
2026-04-27 02:52 -37.02812 174.98126 109 ft 4 kts 39°
2026-04-27 02:53 -37.02786 174.98126 109 ft 4 kts 337°
2026-04-27 02:53 -37.02755 174.98109 110 ft 7 kts 329°
2026-04-27 02:53 -37.02721 174.98086 110 ft 5 kts 332°
2026-04-27 02:53 -37.02706 174.98076 110 ft 0 kts 353°
2026-04-27 02:54 -37.02700 174.98074 109 ft 5 kts 336°
2026-04-27 02:54 -37.02678 174.98057 109 ft 3 kts 324°
2026-04-27 02:55 -37.02676 174.98055 109 ft 0 kts 333°
2026-04-27 02:55 -37.02649 174.98031 110 ft 13 kts 315°
2026-04-27 02:55 -37.02653 174.97996 110 ft 0 kts 224°
2026-04-27 02:56 -37.02666 174.97979 110 ft 17 kts 225°
2026-04-27 02:56 -37.02893 174.97694 128 ft 70 kts 225°
2026-04-27 02:56 -37.03279 174.97216 286 ft 85 kts 224°
2026-04-27 02:56 -37.03704 174.96693 488 ft 88 kts 223°
2026-04-27 02:57 -37.04150 174.96189 694 ft 84 kts 219°
2026-04-27 02:57 -37.04604 174.95719 855 ft 82 kts 217°
2026-04-27 02:57 -37.05011 174.95301 1045 ft 73 kts 211°
2026-04-27 02:57 -37.05460 174.95052 1174 ft 72 kts 200°
2026-04-27 02:58 -37.05956 174.94856 1265 ft 78 kts 198°
2026-04-27 02:58 -37.06514 174.94680 1318 ft 86 kts 196°
2026-04-27 02:58 -37.07120 174.94469 1338 ft 92 kts 202°
2026-04-27 02:58 -37.07742 174.94305 1390 ft 89 kts 191°
2026-04-27 02:59 -37.08303 174.94316 1493 ft 75 kts 176°
2026-04-27 02:59 -37.08811 174.94428 1615 ft 76 kts 177°
2026-04-27 02:59 -37.09343 174.94586 1731 ft 82 kts 171°
2026-04-27 02:59 -37.09905 174.94823 1871 ft 90 kts 163°
2026-04-27 03:00 -37.10508 174.95154 1994 ft 100 kts 162°
2026-04-27 03:00 -37.11179 174.95484 2004 ft 105 kts 165°
2026-04-27 03:00 -37.11872 174.95810 2005 ft 106 kts 169°
2026-04-27 03:00 -37.12598 174.95977 1999 ft 105 kts 175°
2026-04-27 03:01 -37.13299 174.96144 1997 ft 102 kts 171°
2026-04-27 03:01 -37.13950 174.96449 1987 ft 97 kts 162°
2026-04-27 03:01 -37.14557 174.96762 1989 ft 94 kts 162°
2026-04-27 03:01 -37.15168 174.97087 1982 ft 95 kts 161°
2026-04-27 03:02 -37.15768 174.97405 1990 ft 94 kts 163°
2026-04-27 03:02 -37.16385 174.97751 1992 ft 99 kts 161°
2026-04-27 03:02 -37.17029 174.98096 1997 ft 102 kts 163°
2026-04-27 03:02 -37.17683 174.98439 1994 ft 102 kts 162°
2026-04-27 03:03 -37.18332 174.98784 1998 ft 101 kts 160°
2026-04-27 03:03 -37.19503 174.99849 1989 ft 109 kts 131°
2026-04-27 03:03 -37.19885 175.00662 1990 ft 110 kts 115°
2026-04-27 03:04 -37.20069 175.01357 1997 ft 112 kts 113°
2026-04-27 03:04 -37.20209 175.01977 1993 ft 111 kts 110°
2026-04-27 03:04 -37.20396 175.02862 1996 ft 95 kts 110°
2026-04-27 03:04 -37.20575 175.03723 2002 ft 109 kts 109°
2026-04-27 03:05 -37.20752 175.04683 2006 ft 115 kts 109°
2026-04-27 03:05 -37.21021 175.05950 2007 ft 112 kts 109°
2026-04-27 03:05 -37.21162 175.06582 2003 ft 110 kts 110°
2026-04-27 03:05 -37.21362 175.07494 2001 ft 108 kts 108°
2026-04-27 03:06 -37.21577 175.08397 2003 ft 108 kts 109°
2026-04-27 03:06 -37.21683 175.09312 1996 ft 107 kts 98°
2026-04-27 03:06 -37.21751 175.10236 1988 ft 104 kts 100°
2026-04-27 03:06 -37.21824 175.11136 1993 ft 105 kts 101°
2026-04-27 03:07 -37.21890 175.12063 1995 ft 108 kts 101°
2026-04-27 03:07 -37.22002 175.13013 2003 ft 112 kts 101°
2026-04-27 03:07 -37.22124 175.13982 2007 ft 113 kts 103°
2026-04-27 03:07 -37.22238 175.14964 2005 ft 114 kts 103°
2026-04-27 03:08 -37.22362 175.15943 2002 ft 113 kts 102°
2026-04-27 03:08 -37.22491 175.16923 2009 ft 115 kts 102°
2026-04-27 03:08 -37.22617 175.17926 2002 ft 116 kts 101°
2026-04-27 03:08 -37.22734 175.18917 2004 ft 115 kts 103°
2026-04-27 03:09 -37.22847 175.19908 2003 ft 114 kts 102°
2026-04-27 03:09 -37.22953 175.20898 2004 ft 116 kts 95°
2026-04-27 03:09 -37.22854 175.21913 2001 ft 118 kts 84°
2026-04-27 03:09 -37.22655 175.22901 1996 ft 116 kts 74°
2026-04-27 03:10 -37.22400 175.23836 1996 ft 111 kts 75°
2026-04-27 03:10 -37.22145 175.24745 1995 ft 111 kts 75°
2026-04-27 03:10 -37.21892 175.25648 1992 ft 111 kts 78°
2026-04-27 03:10 -37.21667 175.26578 1991 ft 111 kts 82°
2026-04-27 03:11 -37.21537 175.27524 1995 ft 110 kts 87°
2026-04-27 03:11 -37.21476 175.28485 1992 ft 109 kts 96°
2026-04-27 03:11 -37.21507 175.29424 1992 ft 108 kts 97°
2026-04-27 03:11 -37.21520 175.30351 1990 ft 104 kts 97°
2026-04-27 03:12 -37.21545 175.31303 1994 ft 113 kts 94°
2026-04-27 03:12 -37.21577 175.32301 2003 ft 116 kts 96°
2026-04-27 03:12 -37.21622 175.33313 2004 ft 116 kts 96°
2026-04-27 03:12 -37.21653 175.34321 2002 ft 115 kts 95°
2026-04-27 03:13 -37.21813 175.35277 1998 ft 111 kts 114°
2026-04-27 03:13 -37.22098 175.36163 1999 ft 109 kts 118°
2026-04-27 03:13 -37.22405 175.37019 2000 ft 107 kts 117°
2026-04-27 03:13 -37.22688 175.37887 1998 ft 108 kts 116°
2026-04-27 03:14 -37.22878 175.38793 1996 ft 109 kts 95°
2026-04-27 03:14 -37.22843 175.39747 1994 ft 109 kts 90°
2026-04-27 03:14 -37.22723 175.40692 1987 ft 112 kts 71°
2026-04-27 03:14 -37.22409 175.41590 1988 ft 113 kts 72°
2026-04-27 03:15 -37.22086 175.42520 1978 ft 120 kts 69°
2026-04-27 03:15 -37.21751 175.43501 1892 ft 122 kts 71°
2026-04-27 03:15 -37.21431 175.44486 1791 ft 121 kts 71°
2026-04-27 03:15 -37.21121 175.45438 1693 ft 115 kts 71°
2026-04-27 03:16 -37.20830 175.46346 1584 ft 111 kts 71°
2026-04-27 03:16 -37.20545 175.47250 1473 ft 113 kts 70°
2026-04-27 03:16 -37.20264 175.48140 1467 ft 109 kts 71°
2026-04-27 03:16 -37.19985 175.49011 1472 ft 107 kts 70°
2026-04-27 03:17 -37.19740 175.49872 1469 ft 101 kts 82°
2026-04-27 03:17 -37.19735 175.50707 1463 ft 92 kts 94°
2026-04-27 03:17 -37.19800 175.51478 1468 ft 87 kts 102°
2026-04-27 03:17 -37.19913 175.52235 1465 ft 90 kts 101°
2026-04-27 03:18 -37.20020 175.52984 1471 ft 85 kts 99°
2026-04-27 03:18 -37.19937 175.53708 1474 ft 85 kts 79°
2026-04-27 03:18 -37.19751 175.54421 1472 ft 88 kts 74°
2026-04-27 03:18 -37.19549 175.55143 1456 ft 88 kts 73°
2026-04-27 03:19 -37.19304 175.55841 1317 ft 92 kts 53°
2026-04-27 03:19 -37.18707 175.56088 1138 ft 97 kts
2026-04-27 03:19 -37.18034 175.55843 789 ft 107 kts 336°
2026-04-27 03:19 -37.17366 175.55473 452 ft 105 kts 339°
2026-04-27 03:20 -37.16700 175.55148 124 ft 99 kts 341°
2026-04-27 03:20 -37.16125 175.54862 33 ft 78 kts 342°
2026-04-27 03:20 -37.15595 175.54594 157 ft 90 kts 336°
2026-04-27 03:20 -37.15019 175.54260 395 ft 88 kts 337°
2026-04-27 03:21 -37.14454 175.53985 557 ft 88 kts 338°
2026-04-27 03:21 -37.13887 175.53669 692 ft 91 kts 334°
2026-04-27 03:21 -37.13445 175.53148 946 ft 91 kts 290°
2026-04-27 03:21 -37.13593 175.52409 1128 ft 93 kts 217°
2026-04-27 03:22 -37.14239 175.52339 1245 ft 98 kts 168°
2026-04-27 03:22 -37.14886 175.52483 1417 ft 90 kts 169°
2026-04-27 03:22 -37.15521 175.52664 1513 ft 93 kts 163°
2026-04-27 03:22 -37.16193 175.52876 1480 ft 104 kts 163°
2026-04-27 03:23 -37.16872 175.53131 1398 ft 98 kts 160°
2026-04-27 03:23 -37.17488 175.53428 1345 ft 91 kts 155°
2026-04-27 03:23 -37.18042 175.53764 1307 ft 88 kts 151°
2026-04-27 03:23 -37.18538 175.54231 1221 ft 90 kts 129°
2026-04-27 03:24 -37.18698 175.54953 1044 ft 91 kts 78°
2026-04-27 03:24 -37.18297 175.55547 869 ft 93 kts 27°
2026-04-27 03:24 -37.17666 175.55650 596 ft 95 kts 348°
2026-04-27 03:24 -37.17072 175.55352 350 ft 86 kts 339°
2026-04-27 03:25 -37.16509 175.55057 68 ft 86 kts 342°
2026-04-27 03:25 -37.16022 175.54813 29 ft 64 kts 341°
2026-04-27 03:25 -37.15556 175.54579 104 ft 85 kts 337°
2026-04-27 03:25 -37.15000 175.54195 340 ft 95 kts 331°
2026-04-27 03:26 -37.14397 175.53824 604 ft 96 kts 337°
2026-04-27 03:26 -37.13769 175.53483 852 ft 100 kts 331°
2026-04-27 03:26 -37.13502 175.52772 1089 ft 98 kts 257°
2026-04-27 03:26 -37.13979 175.52253 1222 ft 100 kts 178°
2026-04-27 03:27 -37.14632 175.52512 1355 ft 101 kts 161°
2026-04-27 03:27 -37.15333 175.52760 1335 ft 107 kts 162°
2026-04-27 03:27 -37.16066 175.53026 1251 ft 110 kts 164°
2026-04-27 03:27 -37.16792 175.53231 1242 ft 104 kts 163°
2026-04-27 03:28 -37.17457 175.53505 1209 ft 99 kts 158°
2026-04-27 03:28 -37.18084 175.53864 1107 ft 101 kts 151°
2026-04-27 03:28 -37.18662 175.54357 1079 ft 98 kts 135°
2026-04-27 03:28 -37.18906 175.55113 989 ft 95 kts 82°
2026-04-27 03:29 -37.18509 175.55760 843 ft 101 kts 28°
2026-04-27 03:29 -37.17816 175.55758 633 ft 108 kts 339°
2026-04-27 03:29 -37.17149 175.55357 324 ft 104 kts 339°
2026-04-27 03:29 -37.16511 175.55049 52 ft 92 kts 341°
2026-04-27 03:30 -37.16006 175.54800 28 ft 67 kts 341°
2026-04-27 03:30 -37.15572 175.54567 79 ft 79 kts 334°
2026-04-27 03:30 -37.15039 175.54204 292 ft 92 kts 332°
2026-04-27 03:30 -37.14457 175.53799 533 ft 100 kts 332°
2026-04-27 03:31 -37.13827 175.53427 736 ft 107 kts 335°
2026-04-27 03:31 -37.13141 175.53052 919 ft 106 kts 335°
2026-04-27 03:31 -37.13028 175.52323 1012 ft 105 kts 216°
2026-04-27 03:31 -37.13706 175.52305 1121 ft 100 kts 165°
2026-04-27 03:32 -37.14375 175.52519 1285 ft 100 kts 165°
2026-04-27 03:32 -37.15073 175.52762 1306 ft 109 kts 161°
2026-04-27 03:32 -37.15821 175.53027 1275 ft 113 kts 165°
2026-04-27 03:32 -37.16570 175.53267 1316 ft 107 kts 165°
2026-04-27 03:33 -37.17309 175.53473 1285 ft 108 kts 166°
2026-04-27 03:33 -37.18019 175.53719 1215 ft 103 kts 160°
2026-04-27 03:33 -37.18632 175.54093 1174 ft 94 kts 139°
2026-04-27 03:33 -37.18905 175.54736 1052 ft 82 kts 93°
2026-04-27 03:34 -37.18665 175.55356 779 ft 79 kts 45°
2026-04-27 03:34 -37.18188 175.55676 565 ft 78 kts 21°
2026-04-27 03:34 -37.17661 175.55641 400 ft 77 kts 341°
2026-04-27 03:34 -37.17178 175.55359 215 ft 74 kts 340°
2026-04-27 03:35 -37.16709 175.55139 82 ft 73 kts 345°
2026-04-27 03:35 -37.16307 175.54962 30 ft 47 kts 339°
2026-04-27 03:35 -37.16111 175.54870 30 ft 19 kts 347°
2026-04-27 03:35 -37.16038 175.54872 28 ft 5 kts 19°
2026-04-27 03:36 -37.16003 175.54898 28 ft 7 kts 34°
2026-04-27 03:36 -37.15952 175.54946 26 ft 12 kts 34°
2026-04-27 03:36 -37.15889 175.55004 22 ft 11 kts 39°
2026-04-27 03:36 -37.15838 175.55050 20 ft 6 kts 38°
2026-04-27 03:37 -37.15807 175.55088 23 ft 7 kts 46°
2026-04-27 03:37 -37.15765 175.55116 22 ft 5 kts
2026-04-27 03:37 -37.15753 175.55112 22 ft 0 kts 333°